Suraya-y — 9LD2366 — position and weather

sailwx.info

Track history (hours):
 
Tides and Currents Weather Stations Pressure Air Temp Water Temp Dewpoint Dewpoint Depression Visibility Wind Speed Wind Dir Waves Ship Positions

Suraya-y

Last reported at 2014-Jul-28 09:31 UTC. Time now 2014-Jul-28 10:29 UTC.
Position N 46°36' E 031°42'.

Length 145 m; draft 9.1 m.

Type: Cargo ship. MMSI: 667005066.

Date/timePositionNaut miles runAvg speedWind from/ knotsBaromVisibWave heightAir tempDewpointWater temp
2014-Jul-28 09:31N 46°36' E 031°42'9 9.3
2014-Jul-28 08:33N 46°38' E 031°54'8 8.5
2014-Jul-28 07:33N 46°46' E 031°53'9 9.4
2014-Jul-28 06:33N 46°54' E 032°01'3 2.5
2014-Jul-28 05:33N 46°57' E 032°00'0 0.0
2014-Jul-28 04:33N 46°57' E 032°00'0 0.0
2014-Jul-28 03:33N 46°57' E 032°00'0 0.0
2014-Jul-28 02:33N 46°57' E 032°00'0 0.0
2014-Jul-28 01:33N 46°57' E 032°00'0 0.0
2014-Jul-28 00:33N 46°57' E 032°00'0 0.0
2014-Jul-27 23:33N 46°57' E 032°00'0 0.0
2014-Jul-27 22:33N 46°57' E 032°00'0 0.0
2014-Jul-27 21:33N 46°57' E 032°00'0 0.0
2014-Jul-27 20:30N 46°57' E 032°00'0 0.0
2014-Jul-27 19:33N 46°57' E 032°00'0 0.0
2014-Jul-27 18:33N 46°57' E 032°00'0 0.0
2014-Jul-27 17:33N 46°57' E 032°00'0 0.0
2014-Jul-27 15:12N 46°57' E 032°00'0 0.0
2014-Jul-27 14:33N 46°57' E 032°00'0 0.0
2014-Jul-27 13:33N 46°57' E 032°00'0 0.0
2014-Jul-27 12:33N 46°57' E 032°00'0 0.0
2014-Jul-27 11:33N 46°57' E 032°00'0 0.0
2014-Jul-27 10:33N 46°57' E 032°00'0 0.0
2014-Jul-27 09:33N 46°57' E 032°00'0 0.0
2014-Jul-27 08:33N 46°57' E 032°00'0 0.0
2014-Jul-27 07:33N 46°57' E 032°00'0 0.0
2014-Jul-27 06:33N 46°57' E 032°00'0 0.0
2014-Jul-27 05:33N 46°57' E 032°00'0 0.0
2014-Jul-27 04:33N 46°57' E 032°00'0 0.0
2014-Jul-27 03:33N 46°57' E 032°00'0 0.0
2014-Jul-27 02:33N 46°57' E 032°00'0 0.0
2014-Jul-27 01:33N 46°57' E 032°00'0 0.0
2014-Jul-27 00:33N 46°57' E 032°00'0 0.0
2014-Jul-26 23:33N 46°57' E 032°00'0 0.0
2014-Jul-26 22:33N 46°57' E 032°00'0 0.0
2014-Jul-26 21:30N 46°57' E 032°00'0 0.0
2014-Jul-26 20:33N 46°57' E 032°00'0 0.0
2014-Jul-26 19:33N 46°57' E 032°00'0 0.0
2014-Jul-26 18:33N 46°57' E 032°00'0 0.0
2014-Jul-26 17:33N 46°57' E 032°00'0 0.0
2014-Jul-26 16:33N 46°57' E 032°00'0 0.0
2014-Jul-26 15:33N 46°57' E 032°00'0 0.0
2014-Jul-26 14:33N 46°57' E 032°00'0 0.0
2014-Jul-26 13:33N 46°57' E 032°00'0 0.0
2014-Jul-26 12:33N 46°57' E 032°00'0 0.0
2014-Jul-26 11:33N 46°57' E 032°00'0 0.0
2014-Jul-26 10:27N 46°57' E 032°00'0 0.0
2014-Jul-26 09:33N 46°57' E 032°00'0 0.0
2014-Jul-26 08:33N 46°57' E 032°00'0 0.0
2014-Jul-26 07:33N 46°57' E 032°00'0 0.0
2014-Jul-26 06:33N 46°57' E 032°00'0 0.0
2014-Jul-26 05:33N 46°57' E 032°00'0 0.0
2014-Jul-26 04:33N 46°57' E 032°00'0 0.0
2014-Jul-26 03:33N 46°57' E 032°00'0 0.0
2014-Jul-26 02:33N 46°57' E 032°00'0 0.0
2014-Jul-26 01:33N 46°57' E 032°00'0 0.0
2014-Jul-26 00:33N 46°57' E 032°00'0 0.0
2014-Jul-25 23:33N 46°57' E 032°00'0 0.0
2014-Jul-25 22:33N 46°57' E 032°00'0 0.0
2014-Jul-25 21:33N 46°57' E 032°00'0 0.0
2014-Jul-25 20:33N 46°57' E 032°00'0 0.0
2014-Jul-25 19:33N 46°57' E 032°00'0 0.0
2014-Jul-25 18:33N 46°57' E 032°00'2 1.8
2014-Jul-25 17:33N 46°55' E 032°01'10 9.5
2014-Jul-25 16:33N 46°47' E 031°53'1010.1
2014-Jul-25 15:33N 46°37' E 031°53'1211.7
2014-Jul-25 14:33N 46°35' E 031°36'27 2.4
2014-Jul-25 03:29N 46°23' E 031°01'0 0.0
2014-Jul-25 02:32N 46°23' E 031°01'  
2014-Jul-19 11:33N 40°52' E 028°55'0 0.1
2014-Jul-19 10:33N 40°52' E 028°55'9610.1
2014-Jul-19 01:04N 40°28' E 026°52'29 9.6
2014-Jul-18 22:05N 40°10' E 026°24'15 8.5
2014-Jul-18 20:21N 40°00' E 026°09'8 9.7
2014-Jul-18 19:29N 39°57' E 025°59'9 9.8
2014-Jul-18 18:32N 39°49' E 025°51'1110.6
2014-Jul-18 17:32N 39°39' E 025°50'2711.0
2014-Jul-18 15:07N 39°12' E 025°47'2910.8
2014-Jul-18 12:28N 38°44' E 025°46'  
Track history (hours):
 
Tides and Currents Weather Stations Pressure Air Temp Water Temp Dewpoint Dewpoint Depression Visibility Wind Speed Wind Dir Waves Ship Positions

Suraya-y

Last reported at 2014-Jul-28 09:31 UTC. Time now 2014-Jul-28 10:29 UTC.
Position N 46°36' E 031°42'.

Length 145 m; draft 9.1 m.

Type: Cargo ship. MMSI: 667005066.

Date/timePositionNaut miles runAvg speedWind from/ knotsBaromVisibWave heightAir tempDewpointWater temp
2014-Jul-28 09:31N 46°36' E 031°42'9 9.3
2014-Jul-28 08:33N 46°38' E 031°54'8 8.5
2014-Jul-28 07:33N 46°46' E 031°53'9 9.4
2014-Jul-28 06:33N 46°54' E 032°01'3 2.5
2014-Jul-28 05:33N 46°57' E 032°00'0 0.0
2014-Jul-28 04:33N 46°57' E 032°00'0 0.0
2014-Jul-28 03:33N 46°57' E 032°00'0 0.0
2014-Jul-28 02:33N 46°57' E 032°00'0 0.0
2014-Jul-28 01:33N 46°57' E 032°00'0 0.0
2014-Jul-28 00:33N 46°57' E 032°00'0 0.0
2014-Jul-27 23:33N 46°57' E 032°00'0 0.0
2014-Jul-27 22:33N 46°57' E 032°00'0 0.0
2014-Jul-27 21:33N 46°57' E 032°00'0 0.0
2014-Jul-27 20:30N 46°57' E 032°00'0 0.0
2014-Jul-27 19:33N 46°57' E 032°00'0 0.0
2014-Jul-27 18:33N 46°57' E 032°00'0 0.0
2014-Jul-27 17:33N 46°57' E 032°00'0 0.0
2014-Jul-27 15:12N 46°57' E 032°00'0 0.0
2014-Jul-27 14:33N 46°57' E 032°00'0 0.0
2014-Jul-27 13:33N 46°57' E 032°00'0 0.0
2014-Jul-27 12:33N 46°57' E 032°00'0 0.0
2014-Jul-27 11:33N 46°57' E 032°00'0 0.0
2014-Jul-27 10:33N 46°57' E 032°00'0 0.0
2014-Jul-27 09:33N 46°57' E 032°00'0 0.0
2014-Jul-27 08:33N 46°57' E 032°00'0 0.0
2014-Jul-27 07:33N 46°57' E 032°00'0 0.0
2014-Jul-27 06:33N 46°57' E 032°00'0 0.0
2014-Jul-27 05:33N 46°57' E 032°00'0 0.0
2014-Jul-27 04:33N 46°57' E 032°00'0 0.0
2014-Jul-27 03:33N 46°57' E 032°00'0 0.0
2014-Jul-27 02:33N 46°57' E 032°00'0 0.0
2014-Jul-27 01:33N 46°57' E 032°00'0 0.0
2014-Jul-27 00:33N 46°57' E 032°00'0 0.0
2014-Jul-26 23:33N 46°57' E 032°00'0 0.0
2014-Jul-26 22:33N 46°57' E 032°00'0 0.0
2014-Jul-26 21:30N 46°57' E 032°00'0 0.0
2014-Jul-26 20:33N 46°57' E 032°00'0 0.0
2014-Jul-26 19:33N 46°57' E 032°00'0 0.0
2014-Jul-26 18:33N 46°57' E 032°00'0 0.0
2014-Jul-26 17:33N 46°57' E 032°00'0 0.0
2014-Jul-26 16:33N 46°57' E 032°00'0 0.0
2014-Jul-26 15:33N 46°57' E 032°00'0 0.0
2014-Jul-26 14:33N 46°57' E 032°00'0 0.0
2014-Jul-26 13:33N 46°57' E 032°00'0 0.0
2014-Jul-26 12:33N 46°57' E 032°00'0 0.0
2014-Jul-26 11:33N 46°57' E 032°00'0 0.0
2014-Jul-26 10:27N 46°57' E 032°00'0 0.0
2014-Jul-26 09:33N 46°57' E 032°00'0 0.0
2014-Jul-26 08:33N 46°57' E 032°00'0 0.0
2014-Jul-26 07:33N 46°57' E 032°00'0 0.0
2014-Jul-26 06:33N 46°57' E 032°00'0 0.0
2014-Jul-26 05:33N 46°57' E 032°00'0 0.0
2014-Jul-26 04:33N 46°57' E 032°00'0 0.0
2014-Jul-26 03:33N 46°57' E 032°00'0 0.0
2014-Jul-26 02:33N 46°57' E 032°00'0 0.0
2014-Jul-26 01:33N 46°57' E 032°00'0 0.0
2014-Jul-26 00:33N 46°57' E 032°00'0 0.0
2014-Jul-25 23:33N 46°57' E 032°00'0 0.0
2014-Jul-25 22:33N 46°57' E 032°00'0 0.0
2014-Jul-25 21:33N 46°57' E 032°00'0 0.0
2014-Jul-25 20:33N 46°57' E 032°00'0 0.0
2014-Jul-25 19:33N 46°57' E 032°00'0 0.0
2014-Jul-25 18:33N 46°57' E 032°00'2 1.8
2014-Jul-25 17:33N 46°55' E 032°01'10 9.5
2014-Jul-25 16:33N 46°47' E 031°53'1010.1
2014-Jul-25 15:33N 46°37' E 031°53'1211.7
2014-Jul-25 14:33N 46°35' E 031°36'27 2.4
2014-Jul-25 03:29N 46°23' E 031°01'0 0.0
2014-Jul-25 02:32N 46°23' E 031°01'  
2014-Jul-19 11:33N 40°52' E 028°55'0 0.1
2014-Jul-19 10:33N 40°52' E 028°55'9610.1
2014-Jul-19 01:04N 40°28' E 026°52'29 9.6
2014-Jul-18 22:05N 40°10' E 026°24'15 8.5
2014-Jul-18 20:21N 40°00' E 026°09'8 9.7
2014-Jul-18 19:29N 39°57' E 025°59'9 9.8
2014-Jul-18 18:32N 39°49' E 025°51'1110.6
2014-Jul-18 17:32N 39°39' E 025°50'2711.0
2014-Jul-18 15:07N 39°12' E 025°47'2910.8
2014-Jul-18 12:28N 38°44' E 025°46'  

Dump ship's entire track history